createdAt,value
2023-04-17T00:02:01.944Z,102699.59
2023-04-17T00:04:28.813Z,102696.13
2023-04-17T00:06:55.330Z,102696.13
2023-04-17T00:09:22.236Z,102695.22
2023-04-17T00:11:48.744Z,102699.56
2023-04-17T00:14:15.239Z,102697.78
2023-04-17T00:16:41.719Z,102697.78
2023-04-17T00:19:08.231Z,102695.19
2023-04-17T00:21:34.686Z,102702.97
2023-04-17T00:24:01.170Z,102701.22
2023-04-17T00:26:27.638Z,102695.97
2023-04-17T00:28:54.153Z,102695.97
2023-04-17T00:31:20.727Z,102701.16
2023-04-17T00:33:47.254Z,102696.81
2023-04-17T00:36:13.801Z,102703.63
2023-04-17T00:38:40.315Z,102695.00
2023-04-17T00:41:06.861Z,102695.84
2023-04-17T00:43:33.366Z,102691.44
2023-04-17T00:45:59.904Z,102700.94
2023-04-17T00:48:26.557Z,102693.13
2023-04-17T00:50:53.460Z,102697.38
2023-04-17T00:53:19.996Z,102695.59
2023-04-17T00:55:50.469Z,102692.03
2023-04-17T00:58:17.027Z,102691.16
2023-04-17T01:00:44.427Z,102685.94
2023-04-17T01:03:11.131Z,102692.84
2023-04-17T01:05:37.894Z,102687.56
2023-04-17T01:08:04.693Z,102686.63
2023-04-17T01:10:31.485Z,102679.69
2023-04-17T01:13:05.520Z,102685.69
2023-04-17T01:15:33.880Z,102694.34
2023-04-17T01:18:00.518Z,102689.13
2023-04-17T01:20:27.475Z,102693.44
2023-04-17T01:22:54.021Z,102696.88
2023-04-17T01:25:20.597Z,102688.97
2023-04-17T01:27:47.284Z,102691.53
2023-04-17T01:30:14.265Z,102698.44
2023-04-17T01:32:47.263Z,102695.78
2023-04-17T01:35:14.087Z,102686.25
2023-04-17T01:37:40.656Z,102691.38
2023-04-17T01:40:07.787Z,102686.19
2023-04-17T01:42:34.614Z,102688.72
2023-04-17T01:45:01.127Z,102684.38
2023-04-17T01:47:27.591Z,102686.91
2023-04-17T01:49:55.205Z,102698.06
2023-04-17T01:52:21.737Z,102689.31
2023-04-17T01:54:48.266Z,102690.97
2023-04-17T01:57:14.752Z,102699.66
2023-04-17T01:59:41.270Z,102694.44
2023-04-17T02:02:08.497Z,102699.63
2023-04-17T02:04:35.210Z,102699.59
2023-04-17T02:07:01.763Z,102703.84
2023-04-17T02:09:28.329Z,102695.16
2023-04-17T02:11:54.789Z,102701.22
2023-04-17T02:14:21.231Z,102695.13
2023-04-17T02:16:47.775Z,102692.47
2023-04-17T02:19:14.276Z,102698.59
2023-04-17T02:21:40.842Z,102697.63
2023-04-17T02:24:07.685Z,102701.97
2023-04-17T02:26:34.332Z,102695.03
2023-04-17T02:29:00.789Z,102695.88
2023-04-17T02:31:27.366Z,102696.72
2023-04-17T02:33:53.956Z,102706.25
2023-04-17T02:36:20.666Z,102704.50
2023-04-17T02:38:47.142Z,102691.44
2023-04-17T02:41:13.731Z,102693.13
2023-04-17T02:43:40.664Z,102695.72
2023-04-17T02:46:07.221Z,102702.66
2023-04-17T02:48:33.782Z,102693.09
2023-04-17T02:51:00.373Z,102707.84
2023-04-17T02:53:27.778Z,102707.84
2023-04-17T02:55:54.294Z,102701.75
2023-04-17T02:58:23.194Z,102703.47
2023-04-17T03:00:49.758Z,102705.22
2023-04-17T03:03:17.989Z,102707.78
2023-04-17T03:05:44.713Z,102706.00
2023-04-17T03:08:11.172Z,102710.31
2023-04-17T03:10:44.920Z,102708.59
2023-04-17T03:13:11.605Z,102706.84
2023-04-17T03:15:38.070Z,102709.41
2023-04-17T03:18:04.925Z,102706.72
2023-04-17T03:20:31.998Z,102708.38
2023-04-17T03:22:58.535Z,102705.78
2023-04-17T03:25:25.022Z,102701.38
2023-04-17T03:27:52.593Z,102703.91
2023-04-17T03:30:21.804Z,102698.56
2023-04-17T03:32:50.817Z,102708.88
2023-04-17T03:35:17.635Z,102710.53
2023-04-17T03:37:44.163Z,102712.13
2023-04-17T03:40:12.442Z,102715.50
2023-04-17T03:42:38.911Z,102701.53
2023-04-17T03:45:06.044Z,102701.41
2023-04-17T03:47:33.607Z,102693.56
2023-04-17T03:50:00.167Z,102695.22
2023-04-17T03:52:30.809Z,102685.66
2023-04-17T03:54:58.375Z,102679.50
2023-04-17T03:57:25.641Z,102680.25
2023-04-17T03:59:52.626Z,102681.03
2023-04-17T04:02:20.058Z,102681.84
2023-04-17T04:04:48.361Z,102673.09
2023-04-17T04:07:15.129Z,102666.09
2023-04-17T04:09:41.755Z,102662.38
2023-04-17T04:12:09.203Z,102667.50
2023-04-17T04:14:41.937Z,102663.91
2023-04-17T04:17:09.710Z,102667.22
2023-04-17T04:19:37.064Z,102671.44
2023-04-17T04:22:05.471Z,102666.19
2023-04-17T04:24:39.950Z,102669.53
2023-04-17T04:27:07.198Z,102664.22
2023-04-17T04:29:35.372Z,102665.06
2023-04-17T04:32:04.762Z,102659.75
2023-04-17T04:34:37.566Z,102663.94
2023-04-17T04:37:04.038Z,102671.59
2023-04-17T04:39:41.477Z,102671.47
2023-04-17T04:42:10.183Z,102681.81
2023-04-17T04:44:59.611Z,102674.81
2023-04-17T04:47:28.886Z,102679.91
2023-04-17T04:49:55.448Z,102690.16
2023-04-17T04:52:22.869Z,102696.13
2023-04-17T04:54:53.237Z,102702.91
2023-04-17T04:57:19.842Z,102714.09
2023-04-17T04:59:51.652Z,102717.47
2023-04-17T05:02:33.897Z,102716.47
2023-04-17T05:05:01.948Z,102723.34
2023-04-17T05:07:31.835Z,102728.41
2023-04-17T05:09:58.904Z,102727.44
2023-04-17T05:12:27.221Z,102737.00
2023-04-17T05:14:54.223Z,102743.09
2023-04-17T05:17:20.958Z,102748.28
2023-04-17T05:19:47.622Z,102744.94
2023-04-17T05:22:14.187Z,102741.53
2023-04-17T05:24:56.833Z,102749.38
2023-04-17T05:27:23.449Z,102758.91
2023-04-17T05:29:49.950Z,102753.66
2023-04-17T05:32:16.891Z,102754.53
2023-04-17T05:34:52.445Z,102755.38
2023-04-17T05:37:22.989Z,102764.91
2023-04-17T05:39:49.480Z,102759.66
2023-04-17T05:42:15.952Z,102767.34
2023-04-17T05:44:42.700Z,102768.22
2023-04-17T05:47:09.164Z,102773.22
2023-04-17T05:49:36.719Z,102782.69
2023-04-17T05:52:04.396Z,102792.91
2023-04-17T05:54:31.006Z,102792.03
2023-04-17T05:56:58.342Z,102805.03
2023-04-17T05:59:25.497Z,102816.34
2023-04-17T06:01:52.852Z,102806.88
2023-04-17T06:04:24.055Z,102814.72
2023-04-17T06:06:51.454Z,102820.00
2023-04-17T06:09:19.245Z,102819.28
2023-04-17T06:11:45.755Z,102810.75
2023-04-17T06:14:12.463Z,102808.31
2023-04-17T06:16:39.321Z,102804.97
2023-04-17T06:19:08.593Z,102806.06
2023-04-17T06:21:35.213Z,102808.78
2023-04-17T06:24:01.726Z,102817.66
2023-04-17T06:26:28.174Z,102814.28
2023-04-17T06:28:54.801Z,102815.25
2023-04-17T06:31:23.137Z,102818.88
2023-04-17T06:33:49.927Z,102823.38
2023-04-17T06:36:18.564Z,102823.56
2023-04-17T06:38:48.230Z,102831.59
2023-04-17T06:41:16.881Z,102830.03
2023-04-17T06:43:43.502Z,102826.78
2023-04-17T06:46:16.076Z,102821.69
2023-04-17T06:48:42.594Z,102824.56
2023-04-17T06:51:09.268Z,102827.41
2023-04-17T06:53:35.762Z,102837.09
2023-04-17T06:56:02.199Z,102832.97
2023-04-17T06:58:28.691Z,102834.91
2023-04-17T07:00:55.113Z,102833.38
2023-04-17T07:03:22.261Z,102833.63
2023-04-17T07:05:48.883Z,102840.78
2023-04-17T07:08:15.408Z,102839.19
2023-04-17T07:10:41.896Z,102847.97
2023-04-17T07:13:08.353Z,102847.25
2023-04-17T07:15:34.891Z,102849.91
2023-04-17T07:18:01.591Z,102856.97
2023-04-17T07:20:28.130Z,102868.41
2023-04-17T07:22:54.706Z,102866.00
2023-04-17T07:25:21.342Z,102869.59
2023-04-17T07:27:47.926Z,102868.88
2023-04-17T07:30:14.421Z,102867.28
2023-04-17T07:32:40.939Z,102873.50
2023-04-17T07:35:07.860Z,102869.22
2023-04-17T07:37:34.730Z,102883.19
2023-04-17T07:40:01.233Z,102881.66
2023-04-17T07:42:27.725Z,102880.09
2023-04-17T07:44:54.203Z,102878.53
2023-04-17T07:47:20.751Z,102886.53
2023-04-17T07:49:47.404Z,102885.00
2023-04-17T07:52:14.394Z,102887.06
2023-04-17T07:54:40.853Z,102882.31
2023-04-17T07:57:07.323Z,102882.66
2023-04-17T07:59:33.786Z,102897.00
2023-04-17T08:02:00.334Z,102895.63
2023-04-17T08:04:26.999Z,102890.72
2023-04-17T08:06:53.649Z,102898.88
2023-04-17T08:09:23.183Z,102896.63
2023-04-17T08:11:56.893Z,102899.56
2023-04-17T08:14:24.600Z,102900.59
2023-04-17T08:16:51.326Z,102905.88
2023-04-17T08:19:17.950Z,102897.22
2023-04-17T08:21:44.421Z,102903.41
2023-04-17T08:24:10.945Z,102903.50
2023-04-17T08:26:37.477Z,102909.81
2023-04-17T08:29:03.953Z,102913.50
2023-04-17T08:31:30.905Z,102911.94
2023-04-17T08:34:06.672Z,102908.47
2023-04-17T08:36:39.910Z,102918.94
2023-04-17T08:39:06.410Z,102913.88
2023-04-17T08:41:39.312Z,102913.91
2023-04-17T08:44:05.786Z,102910.47
2023-04-17T08:46:32.585Z,102907.09
2023-04-17T08:48:59.115Z,102896.72
2023-04-17T08:51:26.353Z,102903.84
2023-04-17T08:53:52.850Z,102905.63
2023-04-17T08:56:19.459Z,102906.53
2023-04-17T08:58:46.031Z,102903.91
2023-04-17T09:01:14.743Z,102910.88
2023-04-17T09:03:47.468Z,102898.72
2023-04-17T09:06:15.455Z,102896.19
2023-04-17T09:09:02.195Z,102895.41
2023-04-17T09:11:28.736Z,102894.78
2023-04-17T09:13:55.431Z,102892.25
2023-04-17T09:16:22.288Z,102885.47
2023-04-17T09:18:48.777Z,102887.44
2023-04-17T09:21:17.399Z,102890.25
2023-04-17T09:23:52.211Z,102880.06
2023-04-17T09:26:21.373Z,102898.72
2023-04-17T09:29:07.888Z,102890.41
2023-04-17T09:31:35.110Z,102895.97
2023-04-17T09:34:05.729Z,102892.75
2023-04-17T09:36:34.709Z,102892.03
2023-04-17T09:39:06.186Z,102896.50
2023-04-17T09:41:34.270Z,102900.88
2023-04-17T09:44:01.690Z,102902.59
2023-04-17T09:46:31.877Z,102893.78
2023-04-17T09:49:08.880Z,102888.44
2023-04-17T09:51:35.663Z,102898.00
2023-04-17T09:54:02.915Z,102899.53
2023-04-17T09:56:30.164Z,102897.50
2023-04-17T09:58:56.909Z,102896.28
2023-04-17T10:01:24.172Z,102901.31
2023-04-17T10:03:51.127Z,102901.84
2023-04-17T10:06:18.502Z,102904.94
2023-04-17T10:08:45.240Z,102899.63
2023-04-17T10:11:12.582Z,102901.25
2023-04-17T10:13:41.941Z,102904.66
2023-04-17T10:16:08.633Z,102906.16
2023-04-17T10:18:35.159Z,102904.91
2023-04-17T10:21:20.526Z,102903.69
2023-04-17T10:23:47.534Z,102900.13
2023-04-17T10:26:22.811Z,102905.84
2023-04-17T10:28:50.203Z,102902.97
2023-04-17T10:31:17.081Z,102910.88
2023-04-17T10:33:51.175Z,102907.16
2023-04-17T10:36:36.358Z,102904.59
2023-04-17T10:39:13.361Z,102906.34
2023-04-17T10:42:01.982Z,102902.50
2023-04-17T10:44:38.732Z,102901.72
2023-04-17T10:47:09.480Z,102907.25
2023-04-17T10:49:53.342Z,102905.47
2023-04-17T10:52:31.719Z,102907.34
2023-04-17T10:55:23.017Z,102903.28
2023-04-17T10:58:12.783Z,102902.47
2023-04-17T11:00:50.957Z,102896.16
2023-04-17T11:03:17.728Z,102897.53
2023-04-17T11:05:47.940Z,102893.78
2023-04-17T11:08:15.333Z,102891.00
2023-04-17T11:10:41.821Z,102896.38
2023-04-17T11:13:08.293Z,102899.25
2023-04-17T11:15:35.479Z,102906.50
2023-04-17T11:18:03.434Z,102901.53
2023-04-17T11:20:32.306Z,102904.44
2023-04-17T11:23:03.398Z,102903.00
2023-04-17T11:25:31.363Z,102903.31
2023-04-17T11:27:59.027Z,102900.88
2023-04-17T11:30:33.917Z,102897.56
2023-04-17T11:33:02.730Z,102889.81
2023-04-17T11:35:35.197Z,102887.25
2023-04-17T11:38:13.851Z,102888.16
2023-04-17T11:40:51.111Z,102892.47
2023-04-17T11:43:19.982Z,102888.88
2023-04-17T11:45:50.480Z,102900.19
2023-04-17T11:48:21.023Z,102895.88
2023-04-17T11:50:47.582Z,102896.09
2023-04-17T11:53:16.645Z,102887.41
2023-04-17T11:55:44.408Z,102897.06
2023-04-17T11:58:12.496Z,102898.75
2023-04-17T12:00:39.397Z,102898.00
2023-04-17T12:03:32.045Z,102888.50
2023-04-17T12:06:00.672Z,102889.53
2023-04-17T12:08:27.797Z,102894.81
2023-04-17T12:10:54.277Z,102891.41
2023-04-17T12:13:20.751Z,102888.09
2023-04-17T12:15:47.315Z,102898.72
2023-04-17T12:18:13.789Z,102887.31
2023-04-17T12:20:40.280Z,102883.75
2023-04-17T12:23:07.029Z,102887.25
2023-04-17T12:25:34.222Z,102892.44
2023-04-17T12:28:01.333Z,102885.28
2023-04-17T12:30:28.432Z,102897.31
2023-04-17T12:32:55.311Z,102884.81
2023-04-17T12:35:23.515Z,102878.59
2023-04-17T12:37:50.562Z,102892.47
2023-04-17T12:40:24.330Z,102894.28
2023-04-17T12:42:51.415Z,102890.94
2023-04-17T12:45:18.270Z,102889.47
2023-04-17T12:47:44.914Z,102885.22
2023-04-17T12:50:12.096Z,102886.22
2023-04-17T12:52:39.437Z,102888.88
2023-04-17T12:55:06.873Z,102892.41
2023-04-17T12:57:34.327Z,102891.56
2023-04-17T13:00:01.053Z,102887.25
2023-04-17T13:02:27.730Z,102882.91
2023-04-17T13:04:54.290Z,102883.72
2023-04-17T13:07:20.780Z,102882.72
2023-04-17T13:09:47.238Z,102873.78
2023-04-17T13:12:13.791Z,102878.19
2023-04-17T13:14:41.326Z,102883.47
2023-04-17T13:17:08.284Z,102882.56
2023-04-17T13:19:35.688Z,102882.56
2023-04-17T13:22:02.260Z,102876.41
2023-04-17T13:24:29.481Z,102878.09
2023-04-17T13:26:56.550Z,102875.59
2023-04-17T13:29:23.233Z,102880.28
2023-04-17T13:31:49.746Z,102878.69
2023-04-17T13:34:16.240Z,102880.38
2023-04-17T13:36:42.815Z,102872.31
2023-04-17T13:39:09.297Z,102867.56
2023-04-17T13:41:37.263Z,102863.66
2023-04-17T13:44:04.035Z,102866.06
2023-04-17T13:46:32.028Z,102874.00
2023-04-17T13:48:59.366Z,102868.69
2023-04-17T13:51:26.083Z,102864.41
2023-04-17T13:53:52.905Z,102863.25
2023-04-17T13:56:20.091Z,102866.72
2023-04-17T13:58:46.520Z,102867.56
2023-04-17T14:01:14.322Z,102873.81
2023-04-17T14:03:43.092Z,102866.06
2023-04-17T14:06:11.218Z,102869.81
2023-04-17T14:08:37.693Z,102864.94
2023-04-17T14:11:04.300Z,102870.94
2023-04-17T14:13:30.868Z,102869.50
2023-04-17T14:15:57.408Z,102864.84
2023-04-17T14:18:23.881Z,102856.09
2023-04-17T14:20:51.252Z,102856.44
2023-04-17T14:23:17.936Z,102859.91
2023-04-17T14:25:44.759Z,102847.38
2023-04-17T14:28:11.674Z,102851.78
2023-04-17T14:30:38.369Z,102841.72
2023-04-17T14:33:04.860Z,102848.69
2023-04-17T14:35:31.378Z,102856.59
2023-04-17T14:37:58.350Z,102854.91
2023-04-17T14:40:24.886Z,102843.00
2023-04-17T14:42:54.512Z,102850.69
2023-04-17T14:45:21.570Z,102853.97
2023-04-17T14:47:48.195Z,102862.03
2023-04-17T14:50:14.880Z,102856.81
2023-04-17T14:52:41.350Z,102847.56
2023-04-17T14:55:08.405Z,102850.81
2023-04-17T14:57:34.969Z,102845.06
2023-04-17T15:00:01.646Z,102847.31
2023-04-17T15:02:28.466Z,102854.09
2023-04-17T15:04:55.014Z,102859.84
2023-04-17T15:07:21.516Z,102844.13
2023-04-17T15:09:48.046Z,102846.00
2023-04-17T15:12:14.556Z,102836.88
2023-04-17T15:14:41.048Z,102845.41
2023-04-17T15:17:07.538Z,102842.53
2023-04-17T15:19:34.047Z,102831.50
2023-04-17T15:22:00.476Z,102836.84
2023-04-17T15:24:26.955Z,102833.28
2023-04-17T15:26:53.468Z,102834.03
2023-04-17T15:29:19.964Z,102832.22
2023-04-17T15:31:46.459Z,102827.47
2023-04-17T15:34:13.056Z,102837.75
2023-04-17T15:36:39.711Z,102837.50
2023-04-17T15:39:06.202Z,102834.72
2023-04-17T15:41:32.674Z,102837.94
2023-04-17T15:43:59.193Z,102842.16
2023-04-17T15:46:25.702Z,102847.34
2023-04-17T15:49:04.902Z,102839.94
2023-04-17T15:51:35.093Z,102845.50
2023-04-17T15:54:01.622Z,102843.63
2023-04-17T15:56:28.200Z,102839.56
2023-04-17T15:58:54.663Z,102839.00
2023-04-17T16:01:21.178Z,102834.19
2023-04-17T16:03:47.832Z,102834.03
2023-04-17T16:06:14.406Z,102833.69
2023-04-17T16:08:40.879Z,102833.69
2023-04-17T16:11:07.345Z,102829.00
2023-04-17T16:13:33.789Z,102822.56
2023-04-17T16:16:00.458Z,102832.50
2023-04-17T16:18:27.097Z,102829.34
2023-04-17T16:20:53.575Z,102833.22
2023-04-17T16:23:20.156Z,102825.84
2023-04-17T16:25:46.622Z,102827.38
2023-04-17T16:28:13.086Z,102825.97
2023-04-17T16:30:39.738Z,102822.28
2023-04-17T16:33:06.189Z,102830.00
2023-04-17T16:35:32.672Z,102830.00
2023-04-17T16:37:59.174Z,102827.31
2023-04-17T16:40:25.630Z,102830.38
2023-04-17T16:42:52.094Z,102821.97
2023-04-17T16:45:18.692Z,102830.03
2023-04-17T16:47:45.316Z,102828.81
2023-04-17T16:50:11.951Z,102825.66
2023-04-17T16:52:39.388Z,102826.13
2023-04-17T16:55:06.578Z,102829.09
2023-04-17T16:57:34.195Z,102822.59
2023-04-17T17:00:00.690Z,102822.69
2023-04-17T17:02:27.229Z,102821.59
2023-04-17T17:04:53.749Z,102820.97
2023-04-17T17:07:20.442Z,102824.19
2023-04-17T17:09:46.913Z,102823.47
2023-04-17T17:12:13.404Z,102825.00
2023-04-17T17:14:39.991Z,102818.16
2023-04-17T17:17:06.483Z,102820.78
2023-04-17T17:19:33.030Z,102821.50
2023-04-17T17:21:59.508Z,102823.56
2023-04-17T17:24:26.004Z,102823.16
2023-04-17T17:26:52.500Z,102833.19
2023-04-17T17:29:19.007Z,102831.03
2023-04-17T17:31:45.572Z,102829.50
2023-04-17T17:34:25.209Z,102811.84
2023-04-17T17:36:53.549Z,102828.31
2023-04-17T17:39:20.054Z,102826.72
2023-04-17T17:41:47.569Z,102836.25
2023-04-17T17:44:14.672Z,102830.81
2023-04-17T17:46:41.416Z,102833.16
2023-04-17T17:49:07.883Z,102834.53
2023-04-17T17:51:34.392Z,102834.84
2023-04-17T17:54:00.851Z,102833.31
2023-04-17T17:56:27.414Z,102843.03
2023-04-17T17:58:53.957Z,102840.50
2023-04-17T18:01:20.439Z,102844.91
2023-04-17T18:03:49.616Z,102852.72
2023-04-17T18:06:16.569Z,102847.47
2023-04-17T18:08:43.082Z,102847.41
2023-04-17T18:11:09.528Z,102852.59
2023-04-17T18:13:36.008Z,102858.63
2023-04-17T18:16:06.036Z,102866.38
2023-04-17T18:18:32.516Z,102859.31
2023-04-17T18:20:59.042Z,102866.22
2023-04-17T18:23:25.506Z,102874.81
2023-04-17T18:26:03.037Z,102860.69
2023-04-17T18:28:29.622Z,102870.19
2023-04-17T18:30:56.202Z,102877.94
2023-04-17T18:33:22.732Z,102881.25
2023-04-17T18:35:49.266Z,102885.47
2023-04-17T18:38:15.787Z,102887.94
2023-04-17T18:40:42.301Z,102885.16
2023-04-17T18:43:08.799Z,102887.66
2023-04-17T18:45:35.866Z,102885.69
2023-04-17T18:48:02.395Z,102889.00
2023-04-17T18:50:28.851Z,102897.53
2023-04-17T18:52:55.301Z,102904.31
2023-04-17T18:55:21.803Z,102901.44
2023-04-17T18:57:48.287Z,102901.13
2023-04-17T19:00:15.009Z,102903.47
2023-04-17T19:02:41.611Z,102910.13
2023-04-17T19:05:08.652Z,102903.66
2023-04-17T19:07:35.231Z,102914.69
2023-04-17T19:10:01.811Z,102919.69
2023-04-17T19:12:28.392Z,102919.41
2023-04-17T19:14:54.931Z,102916.53
2023-04-17T19:17:21.501Z,102925.84
2023-04-17T19:19:47.971Z,102930.88
2023-04-17T19:22:16.014Z,102933.25
2023-04-17T19:24:42.666Z,102947.78
2023-04-17T19:27:09.284Z,102955.31
2023-04-17T19:29:35.751Z,102951.59
2023-04-17T19:32:02.445Z,102954.78
2023-04-17T19:34:29.023Z,102952.75
2023-04-17T19:36:55.529Z,102965.50
2023-04-17T19:39:22.002Z,102964.34
2023-04-17T19:41:48.556Z,102965.81
2023-04-17T19:44:15.027Z,102966.31
2023-04-17T19:46:41.622Z,102974.72
2023-04-17T19:49:08.258Z,102981.34
2023-04-17T19:51:34.740Z,102983.72
2023-04-17T19:54:01.243Z,102977.41
2023-04-17T19:56:27.798Z,102985.78
2023-04-17T19:58:58.060Z,102997.66
2023-04-17T20:01:24.575Z,102994.75
2023-04-17T20:03:51.358Z,103002.31
2023-04-17T20:06:19.472Z,102998.53
2023-04-17T20:08:46.013Z,102998.41
2023-04-17T20:11:12.575Z,103003.34
2023-04-17T20:13:39.158Z,103006.75
2023-04-17T20:16:06.104Z,103006.75
2023-04-17T20:18:33.503Z,103010.25
2023-04-17T20:21:00.567Z,103008.59
2023-04-17T20:23:27.607Z,103018.16
2023-04-17T20:25:54.127Z,103024.22
2023-04-17T20:28:20.750Z,103018.97
2023-04-17T20:30:47.284Z,103015.41
2023-04-17T20:33:13.929Z,103018.69
2023-04-17T20:35:40.508Z,103021.13
2023-04-17T20:38:07.012Z,103028.00
2023-04-17T20:40:33.617Z,103021.78
2023-04-17T20:43:00.135Z,103021.72
2023-04-17T20:45:26.658Z,103019.06
2023-04-17T20:47:56.900Z,103019.97
2023-04-17T20:50:25.014Z,103025.16
2023-04-17T20:52:51.515Z,103026.91
2023-04-17T20:55:18.256Z,103015.66
2023-04-17T20:57:44.742Z,103025.16
2023-04-17T21:00:11.687Z,103024.19
2023-04-17T21:02:38.253Z,103025.91
2023-04-17T21:05:06.937Z,103021.53
2023-04-17T21:07:33.468Z,103023.38
2023-04-17T21:09:59.984Z,103026.78
2023-04-17T21:12:26.457Z,103023.28
2023-04-17T21:14:52.971Z,103025.81
2023-04-17T21:17:19.557Z,103024.94
2023-04-17T21:19:46.037Z,103030.13
2023-04-17T21:22:13.062Z,103022.34
2023-04-17T21:24:39.706Z,103024.13
2023-04-17T21:27:06.284Z,103026.72
2023-04-17T21:29:32.817Z,103020.72
2023-04-17T21:31:59.336Z,103029.56
2023-04-17T21:34:26.134Z,103030.41
2023-04-17T21:36:53.775Z,103032.31
2023-04-17T21:39:21.153Z,103031.47
2023-04-17T21:41:47.849Z,103041.00
2023-04-17T21:44:14.965Z,103040.22
2023-04-17T21:46:43.865Z,103046.38
2023-04-17T21:49:10.341Z,103041.25
2023-04-17T21:51:36.843Z,103045.56
2023-04-17T21:54:03.488Z,103052.44
2023-04-17T21:56:30.012Z,103054.13
2023-04-17T21:58:56.500Z,103055.03
2023-04-17T22:01:23.017Z,103055.84
2023-04-17T22:03:49.503Z,103055.03
2023-04-17T22:06:15.981Z,103051.50
2023-04-17T22:08:42.437Z,103051.50
2023-04-17T22:11:08.970Z,103051.50
2023-04-17T22:13:35.625Z,103056.69
2023-04-17T22:16:02.551Z,103058.44
2023-04-17T22:18:29.038Z,103051.38
2023-04-17T22:20:55.566Z,103051.34
2023-04-17T22:23:22.088Z,103047.81
2023-04-17T22:25:48.535Z,103051.22
2023-04-17T22:28:15.037Z,103054.72
2023-04-17T22:30:41.511Z,103056.34
2023-04-17T22:33:08.000Z,103058.13
2023-04-17T22:35:34.508Z,103054.72
2023-04-17T22:38:01.221Z,103058.25
2023-04-17T22:40:27.717Z,103060.91
2023-04-17T22:42:54.182Z,103051.38
2023-04-17T22:45:21.823Z,103057.56
2023-04-17T22:47:48.366Z,103056.72
2023-04-17T22:50:14.911Z,103054.13
2023-04-17T22:52:41.408Z,103054.91
2023-04-17T22:55:08.156Z,103051.38
2023-04-17T22:57:34.638Z,103051.38
2023-04-17T23:00:01.103Z,103046.97
2023-04-17T23:02:28.132Z,103050.41
2023-04-17T23:04:54.642Z,103047.81
2023-04-17T23:07:21.177Z,103048.63
2023-04-17T23:09:47.643Z,103039.88
2023-04-17T23:12:14.100Z,103045.06
2023-04-17T23:14:40.554Z,103038.94
2023-04-17T23:17:07.010Z,103041.47
2023-04-17T23:19:33.463Z,103045.81
2023-04-17T23:22:00.367Z,103045.81
2023-04-17T23:24:26.858Z,103051.81
2023-04-17T23:26:53.342Z,103044.88
2023-04-17T23:29:19.779Z,103037.84
2023-04-17T23:31:46.318Z,103047.13
2023-04-17T23:34:13.131Z,103047.13
2023-04-17T23:36:39.802Z,103053.13
2023-04-17T23:39:06.249Z,103040.72
2023-04-17T23:41:32.775Z,103050.31
2023-04-17T23:44:03.074Z,103047.59
2023-04-17T23:46:29.635Z,103057.09
2023-04-17T23:48:56.139Z,103063.06
2023-04-17T23:51:22.667Z,103055.38
2023-04-17T23:53:49.140Z,103066.66
2023-04-17T23:56:15.640Z,103058.88
2023-04-17T23:58:42.090Z,103061.44
